createdAt,value
2018-02-06T00:00:06.844Z,-0.08
2018-02-06T00:02:34.918Z,0.25
2018-02-06T00:05:03.711Z,0.73
2018-02-06T00:07:32.178Z,-0.54
2018-02-06T00:10:00.634Z,0.34
2018-02-06T00:12:29.013Z,0.25
2018-02-06T00:14:57.397Z,-0.10
2018-02-06T00:17:25.809Z,-0.62
2018-02-06T00:19:54.303Z,0.55
2018-02-06T00:22:22.683Z,-0.68
2018-02-06T00:24:51.052Z,-1.02
2018-02-06T00:27:19.426Z,-0.03
2018-02-06T00:29:48.119Z,-0.16
2018-02-06T00:32:16.512Z,0.90
2018-02-06T00:34:44.862Z,-0.27
2018-02-06T00:37:13.265Z,-0.69
2018-02-06T00:39:41.691Z,-0.03
2018-02-06T00:42:10.290Z,0.16
2018-02-06T00:44:38.705Z,-0.21
2018-02-06T00:47:07.054Z,-0.17
2018-02-06T00:49:35.425Z,-0.16
2018-02-06T00:52:03.785Z,-0.23
2018-02-06T00:54:32.555Z,0.20
2018-02-06T00:57:01.045Z,-0.01
2018-02-06T01:01:56.957Z,-0.37
2018-02-06T01:04:25.283Z,0.25
2018-02-06T01:06:53.707Z,0.69
2018-02-06T01:09:22.069Z,-1.03
2018-02-06T01:11:50.430Z,-0.15
2018-02-06T01:14:18.781Z,-0.62
2018-02-06T01:16:47.141Z,-0.19
2018-02-06T01:19:15.637Z,0.80
2018-02-06T01:21:44.025Z,0.05
2018-02-06T01:24:12.566Z,0.92
2018-02-06T01:26:40.968Z,0.51
2018-02-06T01:29:09.336Z,-0.92
2018-02-06T01:31:38.061Z,0.21
2018-02-06T01:34:06.467Z,-0.06
2018-02-06T01:36:34.821Z,-0.01
2018-02-06T01:39:03.182Z,-0.06
2018-02-06T01:41:31.582Z,-0.34
2018-02-06T01:44:00.258Z,-1.08
2018-02-06T01:46:28.647Z,-0.94
2018-02-06T01:48:57.078Z,-0.65
2018-02-06T01:51:25.463Z,-0.34
2018-02-06T01:53:53.847Z,-0.08
2018-02-06T01:56:22.216Z,0.46
2018-02-06T01:58:50.594Z,0.02
2018-02-06T02:01:19.064Z,0.44
2018-02-06T02:03:47.441Z,0.88
2018-02-06T02:06:15.822Z,0.76
2018-02-06T02:08:44.224Z,0.01
2018-02-06T02:11:12.581Z,-0.27
2018-02-06T02:13:41.004Z,-0.02
2018-02-06T02:16:09.391Z,-0.31
2018-02-06T02:18:37.787Z,-0.11
2018-02-06T02:21:06.249Z,-0.21
2018-02-06T02:23:34.614Z,-0.79
2018-02-06T02:26:03.029Z,-1.26
2018-02-06T02:28:31.415Z,0.31
2018-02-06T02:30:59.758Z,0.09
2018-02-06T02:33:28.157Z,0.13
2018-02-06T02:35:56.549Z,-0.47
2018-02-06T02:38:24.975Z,0.21
2018-02-06T02:40:53.363Z,-0.51
2018-02-06T04:39:41.730Z,0.27
2018-02-06T04:42:10.129Z,0.17
2018-02-06T04:44:38.563Z,-0.10
2018-02-06T04:47:06.913Z,0.03
2018-02-06T04:49:35.280Z,-0.35
2018-02-06T04:52:03.646Z,0.01
2018-02-06T04:54:31.999Z,0.55
2018-02-06T04:57:00.350Z,0.21
2018-02-06T04:59:28.725Z,0.29
2018-02-06T05:01:57.090Z,0.46
2018-02-06T05:04:25.466Z,0.32
2018-02-06T05:06:53.931Z,-0.55
2018-02-06T05:09:22.327Z,0.27
2018-02-06T05:11:50.718Z,-1.03
2018-02-06T05:14:19.086Z,-1.04
2018-02-06T05:16:47.447Z,-0.37
2018-02-06T05:19:15.883Z,0.19
2018-02-06T05:21:44.259Z,-0.20
2018-02-06T05:24:12.653Z,0.30
2018-02-06T05:26:41.070Z,-0.69
2018-02-06T05:29:09.450Z,0.43
2018-02-06T05:31:37.907Z,0.69
2018-02-06T05:34:06.280Z,0.63
2018-02-06T05:36:34.646Z,-0.05
2018-02-06T05:39:03.002Z,-0.32
2018-02-06T05:41:31.403Z,-0.12
2018-02-06T05:43:59.824Z,-0.57
2018-02-06T05:46:28.313Z,0.28
2018-02-06T05:48:56.679Z,0.46
2018-02-06T05:51:25.079Z,-0.17
2018-02-06T05:53:53.492Z,-0.09
2018-02-06T05:56:21.925Z,0.92
2018-02-06T05:58:50.304Z,0.26
2018-02-06T06:01:18.690Z,0.78
2018-02-06T06:03:47.078Z,0.76
2018-02-06T06:06:15.448Z,0.23
2018-02-06T06:08:43.903Z,0.02
2018-02-06T06:11:12.288Z,0.03
2018-02-06T06:13:40.770Z,0.85
2018-02-06T06:16:09.120Z,1.18
2018-02-06T06:18:37.494Z,1.02
2018-02-06T06:21:05.895Z,0.26
2018-02-06T06:23:34.368Z,0.31
2018-02-06T06:26:02.781Z,0.55
2018-02-06T06:28:31.174Z,-0.29
2018-02-06T06:30:59.568Z,0.34
2018-02-06T06:33:28.015Z,0.07
2018-02-06T06:35:56.393Z,-0.18
2018-02-06T06:38:24.763Z,0.23
2018-02-06T06:40:53.159Z,0.06
2018-02-06T06:43:21.551Z,0.21
2018-02-06T06:45:50.008Z,0.28
2018-02-06T06:48:18.391Z,0.27
2018-02-06T06:50:46.813Z,-0.31
2018-02-06T06:53:15.199Z,0.46
2018-02-06T06:55:43.665Z,0.42
2018-02-06T06:58:12.089Z,0.39
2018-02-06T07:00:40.513Z,-0.17
2018-02-06T07:03:08.862Z,0.06
2018-02-06T07:05:37.249Z,0.07
2018-02-06T07:08:05.602Z,0.05
2018-02-06T07:10:34.061Z,-0.88
2018-02-06T07:13:02.453Z,0.82
2018-02-06T07:15:30.823Z,0.67
2018-02-06T07:17:59.178Z,1.08
2018-02-06T07:20:27.552Z,0.57
2018-02-06T07:22:56.005Z,0.44
2018-02-06T07:25:24.387Z,0.81
2018-02-06T07:27:52.769Z,0.36
2018-02-06T07:30:21.173Z,0.85
2018-02-06T07:32:49.560Z,0.79
2018-02-06T07:35:17.963Z,0.94
2018-02-06T07:37:46.381Z,0.43
2018-02-06T07:40:14.809Z,0.02
2018-02-06T07:42:43.173Z,0.52
2018-02-06T07:45:11.545Z,0.67
2018-02-06T07:47:39.954Z,0.72
2018-02-06T07:50:08.391Z,0.26
2018-02-06T07:52:36.838Z,1.04
2018-02-06T07:55:05.390Z,0.66
2018-02-06T07:57:33.796Z,0.93
2018-02-06T08:00:02.227Z,0.82
2018-02-06T08:02:30.649Z,1.37
2018-02-06T08:04:59.434Z,1.54
2018-02-06T08:07:27.782Z,1.59
2018-02-06T08:09:56.178Z,1.46
2018-02-06T08:12:24.592Z,1.61
2018-02-06T08:14:52.958Z,1.87
2018-02-06T08:17:21.430Z,1.42
2018-02-06T08:19:49.850Z,1.41
2018-02-06T08:22:18.205Z,1.08
2018-02-06T08:24:46.676Z,1.73
2018-02-06T08:27:15.143Z,1.59
2018-02-06T08:29:43.607Z,2.70
2018-02-06T08:32:11.991Z,2.69
2018-02-06T08:34:40.373Z,3.07
2018-02-06T08:37:08.787Z,1.63
2018-02-06T08:39:37.271Z,3.27
2018-02-06T08:42:05.734Z,3.37
2018-02-06T08:44:34.210Z,3.32
2018-02-06T08:47:02.609Z,3.00
2018-02-06T08:49:31.010Z,3.64
2018-02-06T08:51:59.655Z,3.21
2018-02-06T08:54:28.152Z,3.52
2018-02-06T08:56:56.562Z,4.24
2018-02-06T08:59:24.960Z,4.54
2018-02-06T09:01:53.399Z,3.95
2018-02-06T09:04:21.857Z,3.19
2018-02-06T09:06:50.305Z,4.47
2018-02-06T09:09:18.882Z,4.94
2018-02-06T09:11:47.278Z,5.91
2018-02-06T09:14:15.661Z,5.73
2018-02-06T09:16:44.054Z,5.69
2018-02-06T09:19:12.503Z,4.85
2018-02-06T09:21:40.900Z,5.63
2018-02-06T09:24:10.190Z,5.28
2018-02-06T09:26:38.578Z,5.22
2018-02-06T09:29:07.053Z,5.39
2018-02-06T09:31:35.524Z,5.40
2018-02-06T09:34:03.905Z,5.08
2018-02-06T09:36:32.330Z,5.76
2018-02-06T09:39:00.734Z,6.15
2018-02-06T09:41:29.113Z,4.97
2018-02-06T09:43:57.571Z,5.97
2018-02-06T09:46:25.973Z,6.50
2018-02-06T09:48:54.375Z,6.74
2018-02-06T09:51:22.755Z,6.67
2018-02-06T09:53:51.146Z,6.96
2018-02-06T09:56:19.725Z,6.86
2018-02-06T09:58:48.125Z,6.05
2018-02-06T10:01:16.581Z,6.97
2018-02-06T10:03:44.990Z,5.84
2018-02-06T10:06:13.383Z,5.90
2018-02-06T10:08:41.857Z,5.41
2018-02-06T10:11:10.245Z,5.85
2018-02-06T10:13:38.642Z,6.07
2018-02-06T10:16:07.064Z,6.13
2018-02-06T10:18:35.441Z,7.13
2018-02-06T10:21:03.908Z,6.99
2018-02-06T10:23:32.287Z,7.64
2018-02-06T10:26:00.678Z,7.58
2018-02-06T10:28:29.061Z,7.41
2018-02-06T10:30:57.490Z,8.06
2018-02-06T10:33:26.058Z,7.67
2018-02-06T10:35:54.469Z,7.12
2018-02-06T10:38:22.852Z,7.57
2018-02-06T10:40:51.250Z,6.94
2018-02-06T10:43:19.649Z,6.32
2018-02-06T10:45:48.157Z,6.48
2018-02-06T10:48:16.546Z,6.21
2018-02-06T10:50:44.941Z,6.27
2018-02-06T10:53:13.334Z,5.22
2018-02-06T10:55:41.723Z,4.41
2018-02-06T10:58:10.180Z,5.23
2018-02-06T11:00:38.582Z,5.58
2018-02-06T11:03:06.986Z,5.19
2018-02-06T11:05:35.458Z,5.16
2018-02-06T11:08:03.835Z,5.05
2018-02-06T11:10:32.410Z,5.51
2018-02-06T11:13:00.914Z,5.96
2018-02-06T11:15:29.310Z,6.27
2018-02-06T11:17:57.685Z,5.78
2018-02-06T11:20:26.161Z,5.02
2018-02-06T11:22:54.647Z,5.42
2018-02-06T11:25:23.045Z,6.14
2018-02-06T11:27:51.431Z,5.77
2018-02-06T11:30:19.811Z,5.68
2018-02-06T11:32:48.246Z,6.36
2018-02-06T11:35:16.723Z,6.42
2018-02-06T11:37:45.486Z,6.24
2018-02-06T11:40:13.938Z,6.27
2018-02-06T11:42:43.018Z,6.07
2018-02-06T11:45:11.482Z,6.57
2018-02-06T11:47:39.876Z,6.39
2018-02-06T11:50:08.331Z,5.89
2018-02-06T11:52:37.637Z,6.37
2018-02-06T11:55:06.205Z,5.39
2018-02-06T11:57:34.596Z,5.20
2018-02-06T12:00:02.999Z,5.05
2018-02-06T12:02:31.402Z,6.01
2018-02-06T12:04:59.946Z,5.28
2018-02-06T12:07:28.334Z,6.20
2018-02-06T12:09:56.808Z,5.44
2018-02-06T12:12:25.194Z,5.50
2018-02-06T12:14:53.588Z,5.60
2018-02-06T12:17:22.151Z,5.15
2018-02-06T12:19:50.521Z,5.26
2018-02-06T12:22:18.919Z,4.27
2018-02-06T12:24:47.419Z,5.15
2018-02-06T12:27:15.817Z,5.15
2018-02-06T12:29:44.263Z,4.59
2018-02-06T12:32:12.737Z,4.52
2018-02-06T12:34:41.128Z,4.45
2018-02-06T12:37:09.524Z,5.13
2018-02-06T12:39:43.737Z,4.90
2018-02-06T12:42:12.214Z,4.38
2018-02-06T12:44:40.643Z,4.83
2018-02-06T12:47:09.163Z,4.79
2018-02-06T12:49:37.618Z,5.34
2018-02-06T12:52:06.017Z,5.32
2018-02-06T12:54:34.501Z,4.60
2018-02-06T12:57:02.895Z,5.02
2018-02-06T13:01:59.686Z,4.80
2018-02-06T13:04:29.164Z,4.91
2018-02-06T13:06:57.609Z,3.77
2018-02-06T13:09:26.050Z,3.84
2018-02-06T13:11:54.452Z,4.47
2018-02-06T13:14:22.852Z,4.78
2018-02-06T13:16:51.258Z,4.36
2018-02-06T13:19:19.817Z,4.41
2018-02-06T13:21:48.245Z,3.95
2018-02-06T13:24:16.633Z,3.02
2018-02-06T13:26:45.054Z,3.67
2018-02-06T13:29:13.529Z,3.50
2018-02-06T13:31:41.983Z,3.76
2018-02-06T13:34:10.381Z,3.87
2018-02-06T13:36:38.770Z,3.73
2018-02-06T13:39:07.170Z,3.85
2018-02-06T13:41:35.645Z,4.67
2018-02-06T13:44:04.102Z,3.76
2018-02-06T13:46:32.503Z,4.98
2018-02-06T13:49:01.009Z,5.04
2018-02-06T13:51:29.400Z,4.86
2018-02-06T13:53:57.776Z,5.19
2018-02-06T13:56:26.235Z,4.02
2018-02-06T13:58:54.664Z,3.88
2018-02-06T14:01:23.110Z,4.34
2018-02-06T14:03:51.501Z,3.86
2018-02-06T14:06:19.899Z,5.03
2018-02-06T14:08:48.482Z,4.90
2018-02-06T14:11:16.881Z,5.17
2018-02-06T14:13:45.289Z,4.42
2018-02-06T14:16:13.678Z,4.51
2018-02-06T14:18:42.080Z,4.98
2018-02-06T14:21:10.710Z,4.48
2018-02-06T14:23:39.115Z,4.71
2018-02-06T14:26:07.622Z,3.51
2018-02-06T14:28:36.011Z,3.53
2018-02-06T14:31:04.412Z,4.14
2018-02-06T14:33:32.911Z,4.14
2018-02-06T14:36:01.296Z,4.73
2018-02-06T14:38:29.796Z,4.11
2018-02-06T14:40:58.467Z,3.44
2018-02-06T14:43:26.864Z,4.04
2018-02-06T14:45:55.361Z,4.68
2018-02-06T14:48:23.752Z,4.16
2018-02-06T14:50:52.181Z,4.32
2018-02-06T14:53:20.583Z,4.44
2018-02-06T14:55:49.030Z,5.20
2018-02-06T14:58:17.508Z,4.64
2018-02-06T15:00:45.927Z,4.35
2018-02-06T15:03:14.334Z,4.68
2018-02-06T15:05:42.746Z,4.80
2018-02-06T15:08:11.171Z,4.89
2018-02-06T15:10:39.643Z,3.95
2018-02-06T15:13:08.033Z,4.72
2018-02-06T15:15:36.426Z,4.55
2018-02-06T15:18:04.811Z,3.60
2018-02-06T15:20:33.207Z,3.70
2018-02-06T15:23:01.730Z,4.25
2018-02-06T15:25:30.130Z,4.90
2018-02-06T15:27:58.550Z,3.66
2018-02-06T15:30:26.942Z,4.82
2018-02-06T15:32:55.342Z,4.02
2018-02-06T15:35:23.795Z,4.61
2018-02-06T15:37:52.214Z,4.47
2018-02-06T15:40:20.596Z,4.22
2018-02-06T15:42:49.008Z,4.43
2018-02-06T15:45:17.503Z,3.59
2018-02-06T15:47:46.024Z,3.20
2018-02-06T15:50:14.496Z,4.19
2018-02-06T15:52:42.949Z,4.59
2018-02-06T15:55:11.321Z,4.66
2018-02-06T15:57:39.719Z,3.94
2018-02-06T16:00:08.170Z,3.45
2018-02-06T16:02:36.587Z,3.77
2018-02-06T16:05:05.089Z,3.53
2018-02-06T16:07:33.479Z,3.68
2018-02-06T16:10:01.878Z,3.84
2018-02-06T16:12:30.422Z,3.63
2018-02-06T16:14:58.817Z,3.43
2018-02-06T16:17:27.215Z,3.32
2018-02-06T16:19:55.604Z,3.78
2018-02-06T16:22:23.996Z,3.75
2018-02-06T16:24:52.449Z,3.77
2018-02-06T16:27:20.826Z,2.68
2018-02-06T16:29:49.223Z,3.01
2018-02-06T16:32:17.627Z,3.39
2018-02-06T16:34:46.007Z,3.49
2018-02-06T16:37:14.457Z,3.88
2018-02-06T16:39:42.851Z,3.65
2018-02-06T16:42:11.233Z,4.07
2018-02-06T16:44:39.651Z,2.44
2018-02-06T16:47:08.029Z,3.34
2018-02-06T16:49:36.469Z,3.09
2018-02-06T16:52:04.865Z,3.75
2018-02-06T16:54:33.254Z,4.41
2018-02-06T16:57:03.486Z,4.24
2018-02-06T16:59:31.879Z,3.77
2018-02-06T17:02:00.325Z,3.66
2018-02-06T17:04:28.715Z,4.25
2018-02-06T17:06:57.243Z,3.82
2018-02-06T17:09:25.972Z,3.81
2018-02-06T17:14:29.715Z,2.97
2018-02-06T17:16:58.076Z,3.48
2018-02-06T17:19:26.530Z,3.40
2018-02-06T17:21:54.930Z,3.47
2018-02-06T17:24:23.613Z,3.19
2018-02-06T17:26:52.036Z,3.52
2018-02-06T17:29:20.816Z,4.24
2018-02-06T17:31:49.217Z,4.33
2018-02-06T17:34:17.743Z,3.47
2018-02-06T17:36:46.149Z,3.64
2018-02-06T17:39:36.337Z,4.19
2018-02-06T17:42:04.885Z,4.08
2018-02-06T17:44:33.417Z,3.38
2018-02-06T17:47:01.821Z,3.20
2018-02-06T17:49:30.235Z,3.36
2018-02-06T17:51:58.637Z,3.58
2018-02-06T17:54:27.043Z,4.22
2018-02-06T17:56:55.501Z,4.05
2018-02-06T17:59:23.884Z,3.71
2018-02-06T18:01:52.267Z,3.50
2018-02-06T18:04:20.660Z,4.28
2018-02-06T18:06:49.054Z,4.15
2018-02-06T18:09:17.801Z,4.34
2018-02-06T18:11:46.194Z,4.37
2018-02-06T18:14:14.575Z,4.37
2018-02-06T18:16:42.964Z,3.75
2018-02-06T18:19:11.376Z,3.90
2018-02-06T18:21:39.886Z,4.19
2018-02-06T18:24:08.276Z,3.97
2018-02-06T18:26:36.706Z,4.31
2018-02-06T18:29:05.098Z,4.69
2018-02-06T18:31:33.499Z,4.37
2018-02-06T18:34:02.013Z,4.53
2018-02-06T18:36:30.399Z,4.31
2018-02-06T18:38:58.791Z,4.36
2018-02-06T18:41:27.190Z,4.01
2018-02-06T18:43:56.123Z,3.49
2018-02-06T18:46:25.241Z,3.60
2018-02-06T18:48:53.908Z,3.55
2018-02-06T18:51:22.612Z,3.72
2018-02-06T18:53:52.181Z,2.85
2018-02-06T18:56:20.822Z,4.19
2018-02-06T18:58:49.588Z,4.37
2018-02-06T19:01:18.139Z,4.08
2018-02-06T19:03:47.837Z,4.42
2018-02-06T19:06:17.133Z,4.45
2018-02-06T19:08:45.894Z,3.39
2018-02-06T19:11:14.736Z,2.72
2018-02-06T19:13:43.563Z,3.01
2018-02-06T19:16:12.431Z,3.17
2018-02-06T19:18:41.131Z,2.72
2018-02-06T19:21:09.533Z,2.68
2018-02-06T19:23:38.080Z,3.24
2018-02-06T19:26:06.465Z,3.66
2018-02-06T19:28:34.866Z,3.50
2018-02-06T19:31:03.250Z,3.30
2018-02-06T19:33:31.621Z,2.87
2018-02-06T19:36:00.090Z,3.40
2018-02-06T19:38:28.648Z,3.40
2018-02-06T19:40:57.143Z,3.16
2018-02-06T19:43:25.534Z,2.98
2018-02-06T19:45:53.934Z,3.42
2018-02-06T19:48:22.469Z,3.13
2018-02-06T19:50:51.192Z,2.37
2018-02-06T19:53:19.619Z,3.06
2018-02-06T19:55:48.032Z,2.25
2018-02-06T19:58:16.433Z,2.77
2018-02-06T20:00:45.201Z,2.23
2018-02-06T20:03:13.589Z,2.78
2018-02-06T20:05:42.095Z,2.90
2018-02-06T20:08:10.498Z,3.33
2018-02-06T20:10:38.895Z,3.57
2018-02-06T20:13:07.359Z,3.91
2018-02-06T20:15:35.894Z,2.57
2018-02-06T20:18:04.284Z,3.99
2018-02-06T20:20:32.672Z,3.86
2018-02-06T20:23:01.073Z,4.05
2018-02-06T20:25:29.822Z,3.68
2018-02-06T20:27:58.209Z,3.85
2018-02-06T20:30:26.636Z,4.15
2018-02-06T20:32:55.010Z,4.40
2018-02-06T20:35:23.417Z,3.96
2018-02-06T20:37:51.881Z,3.40
2018-02-06T20:40:20.287Z,4.43
2018-02-06T20:42:48.674Z,3.91
2018-02-06T20:45:17.063Z,3.76
2018-02-06T20:47:45.447Z,4.10
2018-02-06T20:50:15.788Z,3.74
2018-02-06T20:52:44.178Z,3.72
2018-02-06T21:37:37.342Z,3.64
2018-02-06T21:40:05.778Z,3.98
2018-02-06T21:42:34.226Z,4.28
2018-02-06T21:45:02.605Z,4.06
2018-02-06T21:47:30.981Z,4.21
2018-02-06T21:49:59.713Z,4.31
2018-02-06T21:52:28.112Z,4.17
2018-02-06T21:54:56.513Z,3.89
2018-02-06T21:57:25.011Z,4.03
2018-02-06T21:59:53.406Z,3.57
2018-02-06T22:02:21.874Z,4.05
2018-02-06T22:04:50.282Z,3.61
2018-02-06T22:07:18.662Z,3.26
2018-02-06T22:09:47.050Z,3.92
2018-02-06T22:12:15.525Z,3.49
2018-02-06T22:14:43.995Z,3.64
2018-02-06T22:17:12.386Z,3.85
2018-02-06T22:19:40.780Z,3.88
2018-02-06T22:22:09.190Z,4.13
2018-02-06T22:24:37.601Z,4.41
2018-02-06T22:27:06.143Z,3.90
2018-02-06T22:32:27.330Z,3.50
2018-02-06T22:34:55.757Z,4.22
2018-02-06T22:37:24.166Z,4.42
2018-02-06T22:39:52.616Z,4.37
2018-02-06T22:42:21.012Z,4.69
2018-02-06T22:44:49.403Z,5.01
2018-02-06T22:47:17.792Z,4.44
2018-02-06T22:49:46.323Z,4.46
2018-02-06T22:52:14.818Z,4.56
2018-02-06T22:54:43.206Z,4.43
2018-02-06T22:57:11.600Z,4.20
2018-02-06T22:59:40.076Z,4.54
2018-02-06T23:02:08.466Z,4.12
2018-02-06T23:04:36.938Z,4.57
2018-02-06T23:07:05.341Z,4.41
2018-02-06T23:09:33.725Z,4.51
2018-02-06T23:12:02.231Z,3.74
2018-02-06T23:14:30.635Z,3.89
2018-02-06T23:16:59.276Z,4.53
2018-02-06T23:19:27.733Z,4.48
2018-02-06T23:21:56.116Z,4.49
2018-02-06T23:24:24.594Z,3.89
2018-02-06T23:26:53.001Z,4.13
2018-02-06T23:29:21.587Z,4.38
2018-02-06T23:31:49.987Z,4.52
2018-02-06T23:34:18.460Z,4.05
2018-02-06T23:36:46.899Z,4.54
2018-02-06T23:39:15.281Z,4.30
2018-02-06T23:41:43.721Z,4.48
2018-02-06T23:44:12.118Z,4.52
2018-02-06T23:46:41.653Z,4.73
2018-02-06T23:49:10.133Z,4.67
2018-02-06T23:51:38.521Z,4.41
2018-02-06T23:54:06.964Z,4.71
2018-02-06T23:56:35.748Z,4.42
2018-02-06T23:59:04.114Z,4.26
